createdAt,value
2022-10-18T00:00:45.680Z,93.09
2022-10-18T00:03:12.385Z,92.96
2022-10-18T00:05:39.331Z,93.64
2022-10-18T00:08:06.033Z,94.12
2022-10-18T00:10:32.751Z,93.74
2022-10-18T00:12:59.377Z,93.79
2022-10-18T00:15:29.168Z,94.14
2022-10-18T00:17:56.226Z,93.68
2022-10-18T00:20:22.984Z,93.31
2022-10-18T00:22:49.604Z,93.22
2022-10-18T00:25:17.535Z,93.76
2022-10-18T00:27:44.916Z,93.94
2022-10-18T00:30:13.147Z,93.94
2022-10-18T00:32:44.101Z,93.90
2022-10-18T00:35:10.692Z,94.22
2022-10-18T00:37:37.523Z,93.89
2022-10-18T00:40:07.788Z,93.86
2022-10-18T00:42:38.008Z,94.13
2022-10-18T00:45:37.127Z,94.30
2022-10-18T00:48:11.033Z,94.11
2022-10-18T00:50:37.625Z,94.57
2022-10-18T00:53:10.169Z,94.45
2022-10-18T00:55:36.989Z,94.77
2022-10-18T00:58:05.252Z,94.31
2022-10-18T01:00:32.258Z,94.77
2022-10-18T01:03:03.787Z,95.20
2022-10-18T01:05:33.113Z,95.24
2022-10-18T01:08:36.679Z,94.58
2022-10-18T01:11:09.062Z,94.38
2022-10-18T01:13:55.052Z,94.44
2022-10-18T01:16:38.131Z,94.66
2022-10-18T01:19:29.339Z,94.27
2022-10-18T01:22:19.212Z,94.49
2022-10-18T01:25:10.578Z,94.49
2022-10-18T01:27:45.411Z,94.66
2022-10-18T01:30:30.331Z,94.51
2022-10-18T01:33:11.571Z,95.06
2022-10-18T01:35:44.562Z,95.09
2022-10-18T01:38:18.003Z,94.78
2022-10-18T01:40:48.061Z,94.94
2022-10-18T01:43:20.151Z,94.73
2022-10-18T01:45:47.504Z,94.97
2022-10-18T01:48:17.806Z,94.77
2022-10-18T01:50:45.650Z,95.13
2022-10-18T01:53:31.538Z,94.92
2022-10-18T01:56:27.487Z,94.81
2022-10-18T01:59:21.954Z,94.68
2022-10-18T02:02:07.025Z,95.35
2022-10-18T02:04:52.753Z,94.96
2022-10-18T02:07:35.109Z,94.81
2022-10-18T02:12:46.926Z,95.35
2022-10-18T02:15:18.949Z,95.12
2022-10-18T02:17:49.233Z,95.55
2022-10-18T02:20:19.961Z,95.54
2022-10-18T02:22:49.551Z,96.04
2022-10-18T02:25:23.920Z,95.59
2022-10-18T02:27:51.145Z,95.55
2022-10-18T02:30:18.157Z,95.22
2022-10-18T02:32:52.548Z,95.90
2022-10-18T02:35:37.570Z,95.63
2022-10-18T02:38:07.198Z,96.11
2022-10-18T02:40:33.909Z,95.69
2022-10-18T02:43:00.426Z,95.63
2022-10-18T02:45:31.867Z,96.15
2022-10-18T02:48:04.424Z,95.76
2022-10-18T02:50:30.994Z,96.00
2022-10-18T02:53:00.227Z,96.20
2022-10-18T02:57:58.381Z,95.78
2022-10-18T03:00:24.907Z,96.28
2022-10-18T03:02:54.957Z,96.46
2022-10-18T03:05:21.486Z,96.50
2022-10-18T03:07:56.806Z,96.36
2022-10-18T03:10:30.402Z,95.97
2022-10-18T03:12:56.886Z,96.19
2022-10-18T03:15:26.721Z,96.66
2022-10-18T03:17:53.212Z,96.85
2022-10-18T03:20:19.929Z,96.76
2022-10-18T03:22:46.623Z,96.03
2022-10-18T03:25:13.113Z,96.18
2022-10-18T03:27:39.662Z,96.30
2022-10-18T03:30:06.869Z,96.55
2022-10-18T03:32:33.625Z,97.25
2022-10-18T03:35:00.307Z,97.25
2022-10-18T03:37:26.827Z,96.66
2022-10-18T03:39:53.319Z,97.14
2022-10-18T03:42:19.807Z,97.11
2022-10-18T03:44:46.291Z,97.16
2022-10-18T03:47:14.879Z,97.29
2022-10-18T03:49:41.343Z,97.39
2022-10-18T03:52:07.903Z,97.57
2022-10-18T03:54:34.433Z,97.62
2022-10-18T03:57:01.074Z,97.95
2022-10-18T03:59:30.572Z,98.12
2022-10-18T04:02:06.107Z,98.32
2022-10-18T04:04:32.767Z,97.91
2022-10-18T04:06:59.418Z,97.99
2022-10-18T04:09:26.519Z,97.90
2022-10-18T04:11:53.515Z,97.69
2022-10-18T04:14:25.096Z,97.95
2022-10-18T04:16:51.852Z,98.05
2022-10-18T04:19:18.470Z,97.75
2022-10-18T04:21:45.180Z,97.41
2022-10-18T04:24:13.618Z,97.59
2022-10-18T04:26:40.180Z,97.70
2022-10-18T04:29:06.928Z,97.31
2022-10-18T04:31:37.566Z,97.90
2022-10-18T04:34:04.487Z,97.70
2022-10-18T04:36:31.971Z,98.09
2022-10-18T04:38:58.504Z,98.43
2022-10-18T04:41:26.988Z,97.64
2022-10-18T04:43:53.645Z,98.00
2022-10-18T04:46:20.317Z,98.08
2022-10-18T04:48:46.908Z,98.13
2022-10-18T04:51:13.562Z,98.58
2022-10-18T04:53:40.107Z,98.60
2022-10-18T04:56:07.345Z,99.02
2022-10-18T04:58:38.117Z,98.17
2022-10-18T05:01:09.833Z,98.44
2022-10-18T05:03:36.374Z,98.45
2022-10-18T05:06:03.690Z,98.48
2022-10-18T05:08:34.344Z,98.80
2022-10-18T05:11:01.663Z,98.41
2022-10-18T05:13:28.436Z,98.50
2022-10-18T05:15:55.482Z,98.76
2022-10-18T05:18:23.224Z,98.53
2022-10-18T05:20:49.775Z,98.66
2022-10-18T05:23:16.304Z,99.04
2022-10-18T05:25:43.607Z,98.72
2022-10-18T05:28:21.079Z,99.20
2022-10-18T05:31:07.780Z,99.40
2022-10-18T05:33:34.623Z,98.99
2022-10-18T05:36:01.511Z,98.34
2022-10-18T05:38:30.976Z,97.84
2022-10-18T05:40:58.761Z,98.79
2022-10-18T05:43:29.016Z,98.88
2022-10-18T05:45:55.885Z,99.38
2022-10-18T05:48:22.655Z,99.09
2022-10-18T05:50:49.218Z,99.59
2022-10-18T05:53:35.120Z,99.67
2022-10-18T05:56:03.270Z,99.60
2022-10-18T05:58:29.788Z,99.06
2022-10-18T06:01:01.695Z,98.86
2022-10-18T06:03:31.504Z,99.13
2022-10-18T06:06:02.696Z,98.41
2022-10-18T06:08:30.093Z,98.51
2022-10-18T06:10:59.479Z,98.08
2022-10-18T06:13:26.294Z,98.37
2022-10-18T06:15:57.478Z,98.76
2022-10-18T06:18:24.054Z,98.56
2022-10-18T06:20:56.747Z,99.22
2022-10-18T06:23:23.222Z,98.83
2022-10-18T06:25:52.408Z,99.07
2022-10-18T06:28:18.927Z,98.36
2022-10-18T06:30:45.567Z,98.25
2022-10-18T06:33:12.059Z,97.99
2022-10-18T06:35:38.560Z,97.43
2022-10-18T06:38:06.304Z,97.97
2022-10-18T06:40:37.932Z,98.07
2022-10-18T06:43:20.470Z,97.37
2022-10-18T06:45:48.931Z,95.83
2022-10-18T06:48:15.649Z,95.97
2022-10-18T06:50:42.279Z,95.33
2022-10-18T06:53:09.102Z,94.64
2022-10-18T06:55:36.081Z,94.43
2022-10-18T06:58:02.832Z,94.46
2022-10-18T07:00:29.505Z,93.24
2022-10-18T07:02:57.219Z,93.66
2022-10-18T07:05:23.957Z,92.87
2022-10-18T07:07:54.230Z,91.88
2022-10-18T07:10:23.928Z,90.87
2022-10-18T07:12:53.508Z,91.01
2022-10-18T07:15:24.151Z,90.91
2022-10-18T07:17:50.825Z,89.69
2022-10-18T07:20:17.557Z,89.50
2022-10-18T07:22:44.067Z,88.61
2022-10-18T07:25:10.599Z,86.71
2022-10-18T07:27:38.719Z,86.12
2022-10-18T07:30:09.918Z,86.32
2022-10-18T07:32:37.219Z,84.91
2022-10-18T07:35:04.040Z,84.83
2022-10-18T07:37:30.596Z,84.44
2022-10-18T07:39:57.077Z,83.59
2022-10-18T07:42:23.703Z,81.40
2022-10-18T07:44:50.655Z,78.85
2022-10-18T07:47:17.389Z,79.60
2022-10-18T07:49:44.056Z,80.31
2022-10-18T07:52:11.523Z,79.94
2022-10-18T07:54:38.182Z,80.72
2022-10-18T07:57:05.131Z,79.44
2022-10-18T07:59:31.746Z,79.15
2022-10-18T08:01:58.420Z,77.72
2022-10-18T08:04:25.364Z,77.93
2022-10-18T08:06:52.151Z,77.95
2022-10-18T08:09:18.793Z,78.08
2022-10-18T08:11:45.585Z,78.50
2022-10-18T08:14:13.283Z,79.94
2022-10-18T08:16:42.606Z,79.75
2022-10-18T08:19:11.697Z,79.08
2022-10-18T08:21:38.303Z,80.25
2022-10-18T08:24:05.384Z,80.71
2022-10-18T08:26:32.493Z,80.79
2022-10-18T08:29:17.944Z,80.61
2022-10-18T08:31:50.985Z,81.07
2022-10-18T08:34:19.875Z,80.35
2022-10-18T08:36:46.909Z,80.29
2022-10-18T08:39:13.483Z,79.83
2022-10-18T08:42:16.876Z,79.50
2022-10-18T08:44:54.602Z,80.13
2022-10-18T08:47:27.255Z,79.97
2022-10-18T08:50:14.029Z,80.35
2022-10-18T08:53:10.635Z,79.84
2022-10-18T08:55:43.046Z,80.36
2022-10-18T08:58:30.774Z,80.29
2022-10-18T09:01:31.479Z,80.08
2022-10-18T09:04:41.834Z,80.90
2022-10-18T09:07:31.424Z,80.65
2022-10-18T09:10:06.935Z,80.63
2022-10-18T09:13:05.106Z,80.09
2022-10-18T09:15:46.905Z,80.10
2022-10-18T09:18:54.162Z,80.16
2022-10-18T09:21:29.514Z,80.16
2022-10-18T09:24:18.274Z,80.87
2022-10-18T09:26:47.992Z,79.45
2022-10-18T09:29:26.768Z,79.42
2022-10-18T09:32:11.271Z,77.00
2022-10-18T09:34:47.635Z,78.55
2022-10-18T09:37:20.904Z,78.75
2022-10-18T09:39:50.518Z,77.24
2022-10-18T09:42:38.043Z,78.08
2022-10-18T09:45:22.344Z,78.55
2022-10-18T09:47:54.190Z,79.21
2022-10-18T09:50:24.243Z,79.21
2022-10-18T09:53:07.003Z,78.67
2022-10-18T09:55:39.840Z,76.53
2022-10-18T09:58:10.328Z,77.28
2022-10-18T10:00:48.100Z,77.44
2022-10-18T10:03:15.727Z,77.85
2022-10-18T10:05:43.675Z,77.69
2022-10-18T10:08:11.154Z,76.10
2022-10-18T10:10:47.091Z,77.27
2022-10-18T10:13:26.174Z,77.40
2022-10-18T10:15:56.565Z,76.31
2022-10-18T10:18:34.325Z,76.97
2022-10-18T10:21:05.696Z,77.78
2022-10-18T10:23:45.821Z,76.17
2022-10-18T10:26:29.177Z,75.00
2022-10-18T10:28:55.800Z,75.12
2022-10-18T10:31:25.366Z,76.20
2022-10-18T10:34:04.816Z,75.75
2022-10-18T10:36:33.575Z,74.05
2022-10-18T10:39:18.687Z,74.46
2022-10-18T10:42:00.703Z,74.53
2022-10-18T10:44:34.165Z,74.87
2022-10-18T10:47:03.126Z,75.12
2022-10-18T10:49:41.268Z,75.17
2022-10-18T10:52:27.231Z,75.14
2022-10-18T10:55:22.990Z,74.51
2022-10-18T10:57:49.994Z,74.26
2022-10-18T11:00:36.454Z,73.46
2022-10-18T11:03:33.752Z,73.84
2022-10-18T11:06:01.818Z,73.75
2022-10-18T11:08:35.787Z,74.04
2022-10-18T11:11:22.225Z,74.33
2022-10-18T11:14:07.327Z,74.66
2022-10-18T11:16:54.537Z,74.73
2022-10-18T11:19:34.298Z,72.56
2022-10-18T11:22:02.644Z,72.16
2022-10-18T11:24:29.379Z,72.06
2022-10-18T11:27:05.787Z,72.04
2022-10-18T11:29:55.500Z,71.72
2022-10-18T11:32:55.684Z,73.37
2022-10-18T11:35:56.165Z,72.81
2022-10-18T11:39:03.173Z,72.38
2022-10-18T11:41:44.371Z,72.44
2022-10-18T11:44:32.034Z,72.28
2022-10-18T11:47:27.364Z,70.58
2022-10-18T11:50:01.450Z,70.58
2022-10-18T11:52:49.101Z,71.32
2022-10-18T11:55:48.400Z,71.70
2022-10-18T11:58:34.988Z,71.68
2022-10-18T12:01:13.691Z,71.54
2022-10-18T12:04:08.986Z,71.01
2022-10-18T12:06:43.523Z,71.81
2022-10-18T12:09:32.880Z,71.27
2022-10-18T12:12:17.104Z,71.48
2022-10-18T12:14:51.177Z,70.81
2022-10-18T12:17:49.815Z,71.03
2022-10-18T12:20:26.223Z,71.29
2022-10-18T12:22:59.692Z,71.47
2022-10-18T12:25:28.794Z,69.76
2022-10-18T12:30:53.557Z,69.50
2022-10-18T12:33:28.375Z,69.24
2022-10-18T12:36:15.545Z,69.76
2022-10-18T12:38:46.169Z,70.45
2022-10-18T12:41:30.401Z,69.65
2022-10-18T12:44:05.172Z,68.80
2022-10-18T12:46:54.036Z,68.85
2022-10-18T12:49:23.652Z,70.42
2022-10-18T12:51:59.630Z,69.08
2022-10-18T12:54:36.042Z,69.24
2022-10-18T12:57:05.577Z,69.51
2022-10-18T12:59:31.956Z,70.16
2022-10-18T13:02:20.554Z,70.52
2022-10-18T13:04:48.293Z,70.90
2022-10-18T13:07:21.837Z,70.18
2022-10-18T13:10:10.039Z,69.46
2022-10-18T13:12:50.569Z,69.98
2022-10-18T13:15:36.181Z,70.31
2022-10-18T13:18:18.948Z,68.20
2022-10-18T13:21:08.352Z,69.57
2022-10-18T13:23:57.626Z,69.84
2022-10-18T13:26:34.226Z,70.57
2022-10-18T13:29:06.136Z,71.03
2022-10-18T13:31:45.507Z,70.08
2022-10-18T13:34:29.829Z,68.53
2022-10-18T13:37:14.084Z,68.33
2022-10-18T13:39:40.867Z,69.52
2022-10-18T13:42:29.560Z,70.02
2022-10-18T13:45:45.604Z,70.18
2022-10-18T13:48:30.282Z,70.06
2022-10-18T13:51:17.511Z,70.42
2022-10-18T13:54:01.912Z,70.65
2022-10-18T13:56:53.175Z,70.10
2022-10-18T14:00:03.253Z,70.22
2022-10-18T14:03:31.718Z,70.65
2022-10-18T14:06:08.778Z,69.71
2022-10-18T14:08:41.975Z,69.95
2022-10-18T14:11:47.390Z,70.01
2022-10-18T14:14:43.961Z,70.02
2022-10-18T14:17:25.825Z,67.27
2022-10-18T14:20:10.908Z,68.97
2022-10-18T14:22:47.720Z,70.29
2022-10-18T14:25:35.894Z,69.47
2022-10-18T14:28:13.651Z,69.09
2022-10-18T14:30:56.614Z,68.47
2022-10-18T14:33:48.015Z,68.77
2022-10-18T14:36:22.050Z,69.62
2022-10-18T14:38:53.273Z,69.55
2022-10-18T14:41:31.261Z,69.01
2022-10-18T14:44:24.063Z,69.72
2022-10-18T14:47:20.646Z,70.42
2022-10-18T14:49:47.795Z,70.97
2022-10-18T14:52:36.309Z,70.29
2022-10-18T14:55:03.758Z,70.74
2022-10-18T14:57:36.505Z,71.19
2022-10-18T15:00:09.306Z,70.63
2022-10-18T15:02:43.870Z,70.17
2022-10-18T15:05:28.608Z,70.23
2022-10-18T15:07:59.579Z,70.21
2022-10-18T15:10:33.568Z,69.34
2022-10-18T15:13:11.122Z,69.23
2022-10-18T15:15:47.760Z,70.12
2022-10-18T15:18:26.635Z,69.85
2022-10-18T15:21:24.074Z,70.22
2022-10-18T15:23:51.785Z,70.81
2022-10-18T15:26:26.730Z,70.86
2022-10-18T15:28:56.591Z,70.58
2022-10-18T15:31:31.503Z,71.68
2022-10-18T15:34:22.688Z,69.93
2022-10-18T15:36:51.451Z,70.29
2022-10-18T15:39:21.064Z,70.85
2022-10-18T15:41:55.762Z,71.42
2022-10-18T15:44:32.337Z,71.51
2022-10-18T15:47:20.201Z,71.69
2022-10-18T15:49:46.661Z,72.16
2022-10-18T15:52:38.831Z,71.65
2022-10-18T15:55:30.627Z,71.25
2022-10-18T15:58:19.003Z,71.65
2022-10-18T16:00:47.171Z,72.20
2022-10-18T16:03:14.842Z,71.41
2022-10-18T16:05:41.740Z,72.16
2022-10-18T16:08:22.407Z,72.99
2022-10-18T16:10:52.186Z,73.40
2022-10-18T16:13:19.654Z,73.53
2022-10-18T16:15:50.713Z,73.63
2022-10-18T16:18:20.224Z,74.14
2022-10-18T16:20:48.712Z,74.75
2022-10-18T16:23:38.830Z,74.53
2022-10-18T16:26:05.744Z,75.04
2022-10-18T16:28:32.481Z,75.38
2022-10-18T16:31:03.310Z,75.95
2022-10-18T16:33:31.278Z,76.13
2022-10-18T16:35:58.630Z,77.02
2022-10-18T16:38:35.237Z,76.99
2022-10-18T16:41:11.572Z,77.24
2022-10-18T16:43:39.607Z,77.55
2022-10-18T16:46:21.743Z,77.94
2022-10-18T16:48:55.896Z,78.59
2022-10-18T16:51:26.041Z,78.18
2022-10-18T16:53:56.282Z,78.45
2022-10-18T16:56:31.654Z,79.21
2022-10-18T16:59:04.776Z,79.32
2022-10-18T17:01:32.357Z,79.38
2022-10-18T17:04:06.223Z,79.74
2022-10-18T17:06:35.908Z,79.76
2022-10-18T17:09:23.605Z,80.06
2022-10-18T17:11:50.219Z,79.67
2022-10-18T17:14:16.809Z,80.06
2022-10-18T17:16:45.423Z,80.73
2022-10-18T17:19:22.247Z,80.46
2022-10-18T17:21:48.742Z,80.65
2022-10-18T17:24:15.254Z,80.92
2022-10-18T17:26:41.775Z,80.83
2022-10-18T17:29:11.689Z,81.28
2022-10-18T17:31:38.315Z,81.72
2022-10-18T17:34:05.167Z,81.71
2022-10-18T17:36:33.132Z,81.92
2022-10-18T17:38:59.679Z,82.31
2022-10-18T17:41:26.215Z,81.94
2022-10-18T17:43:52.898Z,82.39
2022-10-18T17:46:20.279Z,83.03
2022-10-18T17:48:46.941Z,82.95
2022-10-18T17:51:20.773Z,83.24
2022-10-18T17:53:50.125Z,83.40
2022-10-18T17:56:24.402Z,84.34
2022-10-18T17:58:56.661Z,84.68
2022-10-18T18:01:24.336Z,83.95
2022-10-18T18:03:56.147Z,84.07
2022-10-18T18:06:34.663Z,84.05
2022-10-18T18:09:07.405Z,83.82
2022-10-18T18:11:35.877Z,84.29
2022-10-18T18:14:09.722Z,84.53
2022-10-18T18:16:38.901Z,84.82
2022-10-18T18:19:09.532Z,85.17
2022-10-18T18:21:37.577Z,85.61
2022-10-18T18:24:04.452Z,85.23
2022-10-18T18:26:32.805Z,84.72
2022-10-18T18:29:00.116Z,85.06
2022-10-18T18:31:34.344Z,85.42
2022-10-18T18:34:05.246Z,85.70
2022-10-18T18:36:35.152Z,86.01
2022-10-18T18:39:02.216Z,85.63
2022-10-18T18:41:32.345Z,85.31
2022-10-18T18:44:02.225Z,86.44
2022-10-18T18:46:30.555Z,87.14
2022-10-18T18:48:58.424Z,87.11
2022-10-18T18:51:25.912Z,86.29
2022-10-18T18:53:57.695Z,86.41
2022-10-18T18:56:26.570Z,86.71
2022-10-18T18:58:59.722Z,87.18
2022-10-18T19:01:29.806Z,87.21
2022-10-18T19:03:58.125Z,86.75
2022-10-18T19:06:34.594Z,87.24
2022-10-18T19:09:03.846Z,86.84
2022-10-18T19:11:39.613Z,86.84
2022-10-18T19:14:08.225Z,87.22
2022-10-18T19:16:46.975Z,87.47
2022-10-18T19:19:16.747Z,86.47
2022-10-18T19:21:55.441Z,85.87
2022-10-18T19:24:29.197Z,85.99
2022-10-18T19:27:04.971Z,87.12
2022-10-18T19:29:34.662Z,86.65
2022-10-18T19:32:04.317Z,87.39
2022-10-18T19:34:32.884Z,87.36
2022-10-18T19:36:59.647Z,88.05
2022-10-18T19:39:31.597Z,87.60
2022-10-18T19:42:03.084Z,87.95
2022-10-18T19:44:34.982Z,87.77
2022-10-18T19:47:01.775Z,88.15
2022-10-18T19:49:28.835Z,87.75
2022-10-18T19:51:57.355Z,87.83
2022-10-18T19:54:25.913Z,87.86
2022-10-18T19:56:58.541Z,88.67
2022-10-18T19:59:31.656Z,88.11
2022-10-18T20:02:01.197Z,89.41
2022-10-18T20:04:27.979Z,89.40
2022-10-18T20:06:57.434Z,88.63
2022-10-18T20:09:24.863Z,88.86
2022-10-18T20:11:55.033Z,88.65
2022-10-18T20:14:27.523Z,88.51
2022-10-18T20:16:54.496Z,88.83
2022-10-18T20:19:21.552Z,89.74
2022-10-18T20:21:48.643Z,89.43
2022-10-18T20:24:15.619Z,90.21
2022-10-18T20:26:46.876Z,88.60
2022-10-18T20:29:13.610Z,88.75
2022-10-18T20:31:41.020Z,88.72
2022-10-18T20:34:12.053Z,88.85
2022-10-18T20:36:40.530Z,88.54
2022-10-18T20:39:16.955Z,89.04
2022-10-18T20:41:43.647Z,89.37
2022-10-18T20:44:16.727Z,89.99
2022-10-18T20:46:44.111Z,90.21
2022-10-18T20:49:14.598Z,89.83
2022-10-18T20:51:41.651Z,90.31
2022-10-18T20:54:08.506Z,89.76
2022-10-18T20:56:37.847Z,90.56
2022-10-18T20:59:06.332Z,90.22
2022-10-18T21:01:35.073Z,90.63
2022-10-18T21:04:04.451Z,90.62
2022-10-18T21:06:38.500Z,90.66
2022-10-18T21:09:11.185Z,90.36
2022-10-18T21:11:46.701Z,90.55
2022-10-18T21:14:16.175Z,90.76
2022-10-18T21:16:43.841Z,90.83
2022-10-18T21:19:23.002Z,91.88
2022-10-18T21:21:52.370Z,91.40
2022-10-18T21:24:23.358Z,92.07
2022-10-18T21:26:50.404Z,91.60
2022-10-18T21:29:27.324Z,92.61
2022-10-18T21:31:56.268Z,92.11
2022-10-18T21:34:22.958Z,91.10
2022-10-18T21:36:49.767Z,91.64
2022-10-18T21:39:20.254Z,92.01
2022-10-18T21:41:47.318Z,92.86
2022-10-18T21:44:19.689Z,93.17
2022-10-18T21:46:49.465Z,93.66
2022-10-18T21:49:16.214Z,93.85
2022-10-18T21:51:43.214Z,93.75
2022-10-18T21:54:16.861Z,93.46
2022-10-18T21:56:43.721Z,94.04
2022-10-18T21:59:16.412Z,93.96
2022-10-18T22:01:46.075Z,92.68
2022-10-18T22:04:21.843Z,92.90
2022-10-18T22:06:49.312Z,93.64
2022-10-18T22:09:19.451Z,94.15
2022-10-18T22:11:51.849Z,93.84
2022-10-18T22:14:19.626Z,94.53
2022-10-18T22:16:48.435Z,93.82
2022-10-18T22:19:19.758Z,94.05
2022-10-18T22:21:57.542Z,94.57
2022-10-18T22:24:24.034Z,94.68
2022-10-18T22:26:51.154Z,93.96
2022-10-18T22:29:19.714Z,94.36
2022-10-18T22:31:52.130Z,93.76
2022-10-18T22:34:24.307Z,93.43
2022-10-18T22:36:51.065Z,94.03
2022-10-18T22:39:17.723Z,94.34
2022-10-18T22:41:44.340Z,95.18
2022-10-18T22:44:12.396Z,95.83
2022-10-18T22:46:39.856Z,95.56
2022-10-18T22:49:07.139Z,95.13
2022-10-18T22:54:02.036Z,95.97
2022-10-18T22:56:28.556Z,96.22
2022-10-18T22:59:02.151Z,96.78
2022-10-18T23:01:28.654Z,96.51
2022-10-18T23:03:56.755Z,96.50
2022-10-18T23:06:29.232Z,96.97
2022-10-18T23:08:57.749Z,96.42
2022-10-18T23:11:26.095Z,97.38
2022-10-18T23:13:52.697Z,97.75
2022-10-18T23:16:20.269Z,97.34
2022-10-18T23:18:55.278Z,96.76
2022-10-18T23:21:24.403Z,97.31
2022-10-18T23:23:52.393Z,96.97
2022-10-18T23:26:26.782Z,97.37
2022-10-18T23:28:57.190Z,97.80
2022-10-18T23:31:27.004Z,97.65
2022-10-18T23:34:03.199Z,97.45
2022-10-18T23:36:30.753Z,98.90
2022-10-18T23:38:57.842Z,98.11
2022-10-18T23:41:25.359Z,98.91
2022-10-18T23:43:55.078Z,98.49
2022-10-18T23:46:22.747Z,98.01
2022-10-18T23:48:52.580Z,99.05
2022-10-18T23:51:19.170Z,99.41
2022-10-18T23:53:48.627Z,99.53
2022-10-18T23:56:19.067Z,99.86
2022-10-18T23:58:46.363Z,99.72
